KCIN

Arthur N Neu Airport

Carroll, Iowa, USA
METAR KCIN 211635Z AUTO 13020KT 10SM OVC026 M11/M15 A3015 RMK AO2
Observed Flight Rules
Jan-21 @ 16:35 UTC (5 minutes ago) Marginal Visual Flight Rules
Wind Visibility Clouds
130° at 20 knots 10 miles
  • Overcast at 2,600' AGL
Temperatures Readings
Current -11°C / 12°F
Dewpoint -15°C / 5°F
Humidity 73%
Altimeter 30.15" Hg
Pressure 1021.02 hPa
Elevation 375
METAR KCIN 211635Z AUTO 13020KT 10SM OVC026 M11/M15 A3015 RMK AO2
Observed Flight Rules
Jan-21 @ 16:35 UTC
(5 minutes ago)
MVFR
Wind Visibility
130° at 20 knots 10 miles
Clouds
  • Overcast at 2,600' AGL
Temperature Dewpoint
-11°C / 12°F -15°C / 5°F
Humidity Altimeter Pressure
73% 30.15" Hg 1021.02 hPa